Huvudsida
METAR-TAF:

METAR-TAF

Flygplatser :

Olsztyn-Mazury

Olsztyn, Polen

latitud: 53-28-55N, longitud: 20-56-16E, höjd: 141 m

Aktuellt väderrapport

Denna rapport gjordes för 16 minuter sedan, klockan 14:00 UTC
Vind 10 kt från nord/nordväst, varierande mellan väst/nordväst och nord
Temperatur 20°C
Fuktighet 64%
Tryck 1019 hPa
Sikt 10 km eller mer
Brutna moln på en höjd av 2800 ft

METAR: EPSY 241400Z 33010KT 300V360 9999 BKN028 20/13 Q1019

Tid: 16:16 (14:16 UTC)

Väderprognos

Denna rapport gjordes för 2 timmar och 46 minuter sedan, klockan 11:30 UTC
Prognos gäller från 24 kl. 12 UTC till 24 kl. 21 UTC
Vind 10 kt från nordväst
Sikt 10 km eller mer
Brutna moln på en höjd av 3000 ft

TAF: EPSY 241130Z 2412/2421 32010KT 9999 BKN030

Aktuella väderrapporter och prognoser från 4000 flygplatser (METAR- och TAF-rapporter).

De tillgängliga stationerna syns som gula och röda prickar på kartan.

För musen över prickarna för att se namnen på stationerna.

Klicka sedan för att få väderrapporter och prognoser.

För att ändra kartan: Klicka på de gröna knapparna med ett svart kors på för att zooma in; den gröna knappen med ett streck på för att zooma ut; eller på de gröna pilarna för angränsande kartor.


METAR-TAF: